Time;durP1;ratioP1;P1;durP2;ratioP2;P2;SDS_P1;SDS_P2;PMS_P1;PMS_P2;Temp;Humidity;BMP_temperature;BMP_pressure;BME280_temperature;BME280_humidity;BME280_pressure;Samples;Min_cycle;Max_cycle;Signal;HPM_P1;HPM_P2
2021/04/20 00:01:18;;;;;;;;;19.50;18.50;;;;;;;;3724396;38;18108;-64
2021/04/20 00:03:47;;;;;;;;;29.00;29.00;;;;;;;;3724501;37;21124;-63
2021/04/20 00:06:14;;;;;;;;;32.25;29.50;;;;;;;;3724876;38;21146;-63
2021/04/20 00:08:39;;;;;;;;;30.00;28.25;;;;;;;;3724863;37;21133;-63
2021/04/20 00:11:06;;;;;;;;;26.25;26.00;;;;;;;;3724962;37;21149;-63
2021/04/20 00:13:33;;;;;;;;;20.25;20.25;;;;;;;;3724990;38;18052;-62
2021/04/20 00:15:58;;;;;;;;;30.75;28.00;;;;;;;;3724851;37;21106;-63
2021/04/20 00:18:25;;;;;;;;;29.75;28.00;;;;;;;;3724881;37;21239;-63
2021/04/20 00:20:52;;;;;;;;;26.25;24.75;;;;;;;;3724616;38;18075;-64
2021/04/20 00:23:18;;;;;;;;;27.50;26.75;;;;;;;;3724562;37;21355;-64
2021/04/20 00:25:45;;;;;;;;;28.00;28.00;;;;;;;;3724977;38;21067;-64
2021/04/20 00:28:11;;;;;;;;;27.75;26.25;;;;;;;;3724341;37;18117;-64
2021/04/20 00:30:37;;;;;;;;;25.50;23.50;;;;;;;;3724788;37;21124;-64
2021/04/20 00:33:04;;;;;;;;;28.75;24.25;;;;;;;;3724946;37;18068;-63
2021/04/20 00:35:30;;;;;;;;;27.00;26.50;;;;;;;;3724865;38;21123;-63
2021/04/20 00:37:56;;;;;;;;;26.75;25.25;;;;;;;;3724790;37;21113;-63
2021/04/20 00:40:22;;;;;;;;;29.25;26.50;;;;;;;;3724846;37;21087;-62
2021/04/20 00:42:49;;;;;;;;;26.75;26.75;;;;;;;;3725111;38;18040;-63
2021/04/20 00:45:17;;;;;;;;;24.75;23.75;;;;;;;;3725151;38;18029;-64
2021/04/20 00:47:42;;;;;;;;;25.25;24.25;;;;;;;;3724791;37;20960;-65
2021/04/20 00:50:10;;;;;;;;;25.50;25.00;;;;;;;;3725063;38;21084;-63
2021/04/20 00:52:37;;;;;;;;;31.00;27.75;;;;;;;;3726532;38;18028;-64
2021/04/20 00:55:05;;;;;;;;;28.00;27.25;;;;;;;;3727000;38;21113;-64
2021/04/20 00:57:31;;;;;;;;;25.50;23.75;;;;;;;;3724557;38;21079;-63
2021/04/20 00:59:57;;;;;;;;;24.75;22.25;;;;;;;;3724728;38;21051;-64
2021/04/20 01:02:22;;;;;;;;;23.00;22.00;;;;;;;;3724946;38;18010;-63
2021/04/20 01:04:48;;;;;;;;;24.00;23.25;;;;;;;;3724950;37;18002;-62
2021/04/20 01:07:15;;;;;;;;;19.25;18.50;;;;;;;;3724911;37;17995;-64
2021/04/20 01:09:44;;;;;;;;;27.25;26.75;;;;;;;;3724680;38;18013;-63
2021/04/20 01:12:12;;;;;;;;;26.75;26.50;;;;;;;;3724888;38;21058;-63
2021/04/20 01:14:37;;;;;;;;;26.50;24.25;;;;;;;;3724442;38;21045;-64
2021/04/20 01:17:03;;;;;;;;;30.25;26.50;;;;;;;;3724798;37;21098;-64
2021/04/20 01:19:36;;;;;;;;;23.25;22.75;;;;;;;;3725036;37;17970;-64
2021/04/20 01:22:04;;;;;;;;;23.75;22.75;;;;;;;;3725063;37;21032;-65
2021/04/20 01:24:33;;;;;;;;;25.50;24.25;;;;;;;;3724633;37;21101;-63
2021/04/20 01:26:59;;;;;;;;;23.75;20.50;;;;;;;;3724865;37;21025;-64
2021/04/20 01:29:26;;;;;;;;;25.00;22.75;;;;;;;;3725001;38;21030;-64
2021/04/20 01:31:53;;;;;;;;;28.75;28.00;;;;;;;;3724998;37;21008;-64
2021/04/20 01:34:19;;;;;;;;;17.25;16.00;;;;;;;;3724768;37;17946;-62
2021/04/20 01:36:45;;;;;;;;;26.25;25.00;;;;;;;;3725101;37;21004;-64
2021/04/20 01:39:12;;;;;;;;;20.75;19.00;;;;;;;;3725071;37;21025;-64
2021/04/20 01:41:38;;;;;;;;;20.50;20.50;;;;;;;;3724954;38;21012;-64
2021/04/20 01:44:06;;;;;;;;;24.75;24.75;;;;;;;;3724930;38;21019;-64
2021/04/20 01:46:32;;;;;;;;;19.50;19.50;;;;;;;;3724539;38;20990;-65
2021/04/20 01:48:59;;;;;;;;;26.00;23.25;;;;;;;;3724951;37;20968;-64
2021/04/20 01:51:26;;;;;;;;;22.50;21.25;;;;;;;;3724530;38;20994;-63
2021/04/20 01:53:52;;;;;;;;;22.25;21.75;;;;;;;;3725106;37;17951;-63
2021/04/20 01:56:19;;;;;;;;;23.75;22.75;;;;;;;;3726314;38;20963;-63
2021/04/20 01:58:46;;;;;;;;;22.75;21.75;;;;;;;;3724937;38;17917;-64
2021/04/20 02:01:13;;;;;;;;;23.25;21.75;;;;;;;;3724647;37;20977;-63
2021/04/20 02:03:39;;;;;;;;;24.00;20.75;;;;;;;;3724743;37;21008;-64
2021/04/20 02:06:08;;;;;;;;;21.00;19.25;;;;;;;;3724957;38;21064;-65
2021/04/20 02:08:37;;;;;;;;;23.00;22.50;;;;;;;;3724703;37;17923;-64
2021/04/20 02:11:04;;;;;;;;;22.75;21.75;;;;;;;;3724488;37;20946;-64
2021/04/20 02:13:31;;;;;;;;;23.25;22.00;;;;;;;;3724894;37;20954;-63
2021/04/20 02:15:59;;;;;;;;;23.75;23.75;;;;;;;;3724826;38;20946;-63
2021/04/20 02:18:25;;;;;;;;;19.25;17.75;;;;;;;;3724424;38;20941;-62
2021/04/20 02:20:52;;;;;;;;;23.75;22.00;;;;;;;;3725074;37;20959;-64
2021/04/20 02:23:20;;;;;;;;;26.50;25.25;;;;;;;;3724616;37;20940;-63
2021/04/20 02:25:47;;;;;;;;;21.50;20.75;;;;;;;;3724497;37;20941;-64
2021/04/20 02:28:14;;;;;;;;;19.50;18.00;;;;;;;;3725131;38;20876;-65
2021/04/20 02:30:40;;;;;;;;;25.50;25.25;;;;;;;;3724437;38;20897;-64
2021/04/20 02:33:06;;;;;;;;;22.00;22.00;;;;;;;;3725001;37;20815;-63
2021/04/20 02:35:31;;;;;;;;;26.75;26.25;;;;;;;;3724953;37;20925;-64
2021/04/20 02:38:01;;;;;;;;;25.25;23.75;;;;;;;;3724905;37;17874;-63
2021/04/20 02:40:31;;;;;;;;;26.50;25.75;;;;;;;;3725016;37;17860;-63
2021/04/20 02:42:57;;;;;;;;;24.50;24.50;;;;;;;;3725006;37;20927;-63
2021/04/20 02:45:24;;;;;;;;;22.50;21.50;;;;;;;;3724997;37;20901;-63
2021/04/20 02:47:50;;;;;;;;;22.25;22.25;;;;;;;;3724796;37;20928;-64
2021/04/20 02:50:17;;;;;;;;;31.25;29.25;;;;;;;;3724785;37;20924;-64
2021/04/20 02:52:43;;;;;;;;;21.75;20.00;;;;;;;;3724902;38;20912;-64
2021/04/20 02:55:11;;;;;;;;;31.00;26.50;;;;;;;;3724861;38;20919;-64
2021/04/20 02:57:44;;;;;;;;;27.75;27.00;;;;;;;;3724421;37;21010;-64
2021/04/20 03:00:12;;;;;;;;;27.50;26.00;;;;;;;;3724391;37;20919;-63
2021/04/20 03:02:43;;;;;;;;;27.25;25.50;;;;;;;;3724533;37;20882;-62
2021/04/20 03:05:17;;;;;;;;;29.25;29.25;;;;;;;;3724618;37;20897;-63
2021/04/20 03:07:45;;;;;;;;;31.00;30.00;;;;;;;;3724849;37;20896;-63
2021/04/20 03:10:12;;;;;;;;;27.25;26.50;;;;;;;;3724453;37;21135;-63
2021/04/20 03:12:38;;;;;;;;;21.00;19.75;;;;;;;;3724790;38;20902;-64
2021/04/20 03:15:06;;;;;;;;;33.75;31.50;;;;;;;;3724743;38;20883;-62
2021/04/20 03:17:32;;;;;;;;;27.25;26.25;;;;;;;;3724880;37;20873;-63
2021/04/20 03:19:59;;;;;;;;;24.75;23.50;;;;;;;;3724759;38;20881;-64
2021/04/20 03:22:26;;;;;;;;;27.00;26.25;;;;;;;;3724811;38;20831;-64
2021/04/20 03:25:17;;;;;;;;;27.25;26.50;;;;;;;;3724808;37;17816;-64
2021/04/20 03:27:45;;;;;;;;;30.00;26.50;;;;;;;;3725045;37;20861;-63
2021/04/20 03:30:11;;;;;;;;;29.00;28.50;;;;;;;;3724997;38;20853;-63
2021/04/20 03:32:40;;;;;;;;;30.00;26.75;;;;;;;;3724900;37;20866;-65
2021/04/20 03:35:08;;;;;;;;;28.25;27.50;;;;;;;;3724710;37;20844;-63
2021/04/20 03:37:45;;;;;;;;;30.25;29.25;;;;;;;;3724891;38;20867;-63
2021/04/20 03:40:14;;;;;;;;;29.25;27.50;;;;;;;;3725137;37;20862;-63
2021/04/20 03:42:45;;;;;;;;;26.00;25.50;;;;;;;;3724876;37;20874;-64
2021/04/20 03:45:31;;;;;;;;;25.00;24.00;;;;;;;;3724943;38;20833;-62
2021/04/20 03:48:09;;;;;;;;;29.75;25.50;;;;;;;;3724925;38;20861;-64
2021/04/20 03:50:37;;;;;;;;;28.00;26.50;;;;;;;;3725211;37;20848;-63
2021/04/20 03:53:04;;;;;;;;;25.25;23.25;;;;;;;;3724899;38;20861;-64
2021/04/20 03:55:30;;;;;;;;;23.50;21.50;;;;;;;;3724868;37;20819;-64
2021/04/20 03:57:57;;;;;;;;;31.00;30.50;;;;;;;;3724834;37;20858;-63
2021/04/20 04:00:24;;;;;;;;;27.00;26.50;;;;;;;;3724836;37;20825;-64
2021/04/20 04:02:52;;;;;;;;;29.75;29.00;;;;;;;;3724545;37;20835;-63
2021/04/20 04:05:20;;;;;;;;;24.00;23.25;;;;;;;;3724555;37;20631;-63
2021/04/20 04:07:55;;;;;;;;;24.75;23.75;;;;;;;;3724771;37;20833;-63
2021/04/20 04:10:42;;;;;;;;;24.25;22.00;;;;;;;;3725019;38;20749;-62
2021/04/20 04:13:12;;;;;;;;;36.00;32.75;;;;;;;;3724603;37;20886;-65
2021/04/20 04:15:39;;;;;;;;;34.50;33.00;;;;;;;;3725155;38;20823;-64
2021/04/20 04:18:07;;;;;;;;;30.00;29.50;;;;;;;;3724919;38;20973;-64
2021/04/20 04:20:35;;;;;;;;;33.25;33.00;;;;;;;;3725013;37;20809;-62
2021/04/20 04:23:05;;;;;;;;;21.00;20.50;;;;;;;;3725348;38;20798;-62
2021/04/20 04:25:35;;;;;;;;;31.00;29.50;;;;;;;;3724788;37;17749;-64
2021/04/20 04:28:03;;;;;;;;;36.25;34.00;;;;;;;;3725064;38;20803;-63
2021/04/20 04:30:37;;;;;;;;;29.25;27.25;;;;;;;;3726267;37;20788;-64
2021/04/20 04:33:05;;;;;;;;;28.50;28.00;;;;;;;;3727017;38;20768;-63
2021/04/20 04:35:31;;;;;;;;;30.75;29.75;;;;;;;;3724962;37;20735;-64
2021/04/20 04:37:57;;;;;;;;;29.00;28.75;;;;;;;;3725054;37;20803;-61
2021/04/20 04:40:23;;;;;;;;;34.25;33.00;;;;;;;;3724928;37;20789;-62
2021/04/20 04:42:50;;;;;;;;;35.25;31.50;;;;;;;;3725010;37;20782;-60
2021/04/20 04:45:17;;;;;;;;;29.50;27.50;;;;;;;;3725042;38;17703;-59
2021/04/20 04:47:46;;;;;;;;;26.25;24.50;;;;;;;;3724966;38;20724;-61
2021/04/20 04:50:12;;;;;;;;;26.00;25.00;;;;;;;;3725158;38;20746;-61
2021/04/20 04:52:39;;;;;;;;;18.75;18.50;;;;;;;;3725066;37;20753;-62
2021/04/20 04:55:06;;;;;;;;;25.50;24.75;;;;;;;;3724876;38;20742;-62
2021/04/20 04:57:32;;;;;;;;;22.00;22.00;;;;;;;;3724989;37;20766;-61
2021/04/20 05:00:03;;;;;;;;;34.00;32.00;;;;;;;;3725136;37;20755;-63
2021/04/20 05:02:30;;;;;;;;;25.75;23.50;;;;;;;;3725462;37;19670;-60
2021/04/20 05:05:07;;;;;;;;;26.25;25.75;;;;;;;;3725376;38;19775;-62
2021/04/20 05:07:34;;;;;;;;;24.50;23.00;;;;;;;;3724648;38;20473;-62
2021/04/20 05:10:01;;;;;;;;;26.50;25.25;;;;;;;;3725038;38;19637;-63
2021/04/20 05:12:27;;;;;;;;;22.25;22.25;;;;;;;;3725241;38;19646;-62
2021/04/20 05:14:54;;;;;;;;;28.00;25.00;;;;;;;;3724779;37;19649;-62
2021/04/20 05:17:20;;;;;;;;;27.50;24.75;;;;;;;;3724694;38;19639;-63
2021/04/20 05:19:54;;;;;;;;;31.75;31.00;;;;;;;;3725592;38;19639;-63
2021/04/20 05:22:21;;;;;;;;;29.00;27.00;;;;;;;;3725324;38;19621;-62
2021/04/20 05:24:54;;;;;;;;;26.00;25.50;;;;;;;;3725256;38;19637;-64
2021/04/20 05:27:20;;;;;;;;;31.00;30.25;;;;;;;;3725069;37;20600;-63
2021/04/20 05:29:45;;;;;;;;;32.25;30.50;;;;;;;;3725004;37;20593;-64
2021/04/20 05:32:11;;;;;;;;;29.75;29.00;;;;;;;;3725044;38;18473;-67
2021/04/20 05:34:37;;;;;;;;;26.75;25.75;;;;;;;;3724998;37;18469;-65
2021/04/20 05:37:03;;;;;;;;;31.00;30.00;;;;;;;;3724749;38;17477;-64
2021/04/20 05:39:29;;;;;;;;;27.25;25.25;;;;;;;;3725258;37;18554;-63
2021/04/20 05:41:55;;;;;;;;;26.75;25.75;;;;;;;;3727338;38;20626;-62
2021/04/20 05:44:21;;;;;;;;;31.00;29.50;;;;;;;;3727668;37;18484;-64
2021/04/20 05:46:47;;;;;;;;;32.75;32.00;;;;;;;;3729081;37;18464;-63
2021/04/20 05:49:14;;;;;;;;;38.00;33.75;;;;;;;;3728293;38;18448;-64
2021/04/20 05:51:41;;;;;;;;;33.25;32.75;;;;;;;;3726122;38;20578;-61
2021/04/20 05:54:09;;;;;;;;;30.00;30.00;;;;;;;;3725896;38;20599;-61
2021/04/20 05:56:36;;;;;;;;;32.50;31.75;;;;;;;;3725672;37;20592;-65
2021/04/20 05:59:04;;;;;;;;;33.50;32.25;;;;;;;;3726117;37;20574;-62
2021/04/20 06:01:31;;;;;;;;;34.25;33.00;;;;;;;;3726078;38;21675;-62
2021/04/20 06:03:57;;;;;;;;;29.50;28.00;;;;;;;;3725341;38;21671;-61
2021/04/20 06:06:23;;;;;;;;;31.00;31.00;;;;;;;;3724885;38;21667;-62
2021/04/20 06:08:51;;;;;;;;;26.25;26.25;;;;;;;;3724990;37;21830;-62
2021/04/20 06:11:18;;;;;;;;;27.00;25.50;;;;;;;;3725219;38;21641;-63
2021/04/20 06:13:49;;;;;;;;;26.00;25.00;;;;;;;;3725422;38;21670;-63
2021/04/20 06:16:15;;;;;;;;;25.25;25.25;;;;;;;;3725202;37;21669;-64
2021/04/20 06:18:42;;;;;;;;;27.50;26.75;;;;;;;;3725445;37;21633;-62
2021/04/20 06:21:08;;;;;;;;;28.25;26.25;;;;;;;;3725732;38;18588;-62
2021/04/20 06:23:34;;;;;;;;;27.50;26.25;;;;;;;;3725508;37;21634;-62
2021/04/20 06:26:02;;;;;;;;;27.75;26.00;;;;;;;;3725418;37;21657;-62
2021/04/20 06:28:29;;;;;;;;;29.25;28.25;;;;;;;;3725206;37;21637;-62
2021/04/20 06:30:57;;;;;;;;;27.75;27.25;;;;;;;;3725230;37;21620;-64
2021/04/20 06:33:24;;;;;;;;;27.00;25.50;;;;;;;;3724943;37;21628;-64
2021/04/20 06:35:50;;;;;;;;;32.00;31.25;;;;;;;;3725367;37;21641;-65
2021/04/20 06:38:16;;;;;;;;;28.50;28.50;;;;;;;;3725674;37;21628;-62
2021/04/20 06:40:50;;;;;;;;;29.50;28.25;;;;;;;;3725986;37;21636;-64
2021/04/20 06:43:21;;;;;;;;;38.75;34.50;;;;;;;;3731088;38;18555;-62
2021/04/20 06:45:53;;;;;;;;;28.50;27.25;;;;;;;;3730731;37;21678;-62
2021/04/20 06:48:37;;;;;;;;;26.75;25.25;;;;;;;;3731596;37;21611;-61
2021/04/20 06:51:29;;;;;;;;;26.75;26.00;;;;;;;;3730806;37;21641;-64
2021/04/20 06:53:59;;;;;;;;;28.50;27.50;;;;;;;;3731331;37;21617;-63
2021/04/20 06:56:48;;;;;;;;;37.00;32.25;;;;;;;;3730010;38;21623;-62
2021/04/20 06:59:32;;;;;;;;;29.00;28.25;;;;;;;;3725639;38;21600;-63
2021/04/20 07:02:13;;;;;;;;;27.00;26.50;;;;;;;;3725201;37;21363;-62
2021/04/20 07:04:42;;;;;;;;;25.75;24.75;;;;;;;;3725250;38;21680;-62
2021/04/20 07:07:26;;;;;;;;;36.75;34.50;;;;;;;;3725544;38;21603;-64
2021/04/20 07:09:57;;;;;;;;;30.75;30.25;;;;;;;;3726498;37;21616;-63
2021/04/20 07:12:23;;;;;;;;;39.50;34.75;;;;;;;;3728249;38;21588;-63
2021/04/20 07:14:51;;;;;;;;;36.00;34.25;;;;;;;;3725384;37;21689;-64
2021/04/20 07:17:25;;;;;;;;;39.50;34.75;;;;;;;;3725091;38;21681;-62
2021/04/20 07:20:22;;;;;;;;;29.50;28.25;;;;;;;;3725045;37;21565;-64
2021/04/20 07:23:06;;;;;;;;;40.75;36.25;;;;;;;;3725005;37;21601;-62
2021/04/20 07:26:07;;;;;;;;;39.25;35.75;;;;;;;;3725846;38;21749;-64
2021/04/20 07:29:01;;;;;;;;;47.75;40.00;;;;;;;;3724590;38;21680;-64
2021/04/20 07:31:44;;;;;;;;;47.25;39.75;;;;;;;;3725044;37;21674;-64
2021/04/20 07:34:56;;;;;;;;;39.25;36.00;;;;;;;;3725103;37;21632;-63
2021/04/20 07:38:02;;;;;;;;;38.75;35.25;;;;;;;;3725054;38;21640;-64
2021/04/20 07:40:46;;;;;;;;;38.25;35.50;;;;;;;;3724691;37;21645;-67
2021/04/20 07:43:37;;;;;;;;;39.50;36.00;;;;;;;;3724551;38;21583;-64
2021/04/20 07:46:14;;;;;;;;;35.00;33.00;;;;;;;;3725031;38;21631;-63
2021/04/20 07:48:55;;;;;;;;;34.25;32.50;;;;;;;;3724981;38;21612;-63
2021/04/20 07:51:27;;;;;;;;;36.50;32.25;;;;;;;;3725039;37;21524;-64
2021/04/20 07:54:00;;;;;;;;;30.25;27.00;;;;;;;;3724727;37;21539;-64
2021/04/20 07:56:31;;;;;;;;;28.75;28.75;;;;;;;;3724626;38;21055;-65
2021/04/20 07:59:00;;;;;;;;;30.25;29.75;;;;;;;;3724840;37;21527;-62
2021/04/20 08:01:38;;;;;;;;;27.25;25.75;;;;;;;;3724914;38;21644;-64
2021/04/20 08:04:18;;;;;;;;;30.50;27.00;;;;;;;;3725148;37;21527;-64
2021/04/20 08:06:45;;;;;;;;;23.25;22.00;;;;;;;;3724548;37;21535;-63
2021/04/20 08:09:23;;;;;;;;;26.00;24.75;;;;;;;;3723869;37;21482;-64
2021/04/20 08:11:54;;;;;;;;;28.50;25.50;;;;;;;;3724431;37;21518;-66
2021/04/20 08:14:39;;;;;;;;;26.50;26.50;;;;;;;;3725216;38;21492;-63
2021/04/20 08:17:13;;;;;;;;;22.00;21.50;;;;;;;;3725011;38;21522;-63
2021/04/20 08:19:57;;;;;;;;;30.00;27.50;;;;;;;;3725096;38;21478;-65
2021/04/20 08:22:25;;;;;;;;;32.25;30.50;;;;;;;;3725138;37;21498;-64
2021/04/20 08:25:11;;;;;;;;;32.00;30.50;;;;;;;;3724052;37;21481;-63
2021/04/20 08:27:53;;;;;;;;;29.50;27.00;;;;;;;;3724881;38;21504;-64
2021/04/20 08:30:41;;;;;;;;;32.75;30.25;;;;;;;;3724563;38;21546;-63
2021/04/20 08:33:28;;;;;;;;;28.25;27.25;;;;;;;;3725003;37;21470;-63
2021/04/20 08:35:55;;;;;;;;;33.00;31.00;;;;;;;;3724933;38;21436;-62
2021/04/20 08:38:55;;;;;;;;;32.50;29.25;;;;;;;;3725069;38;21451;-64
2021/04/20 08:41:46;;;;;;;;;31.25;30.25;;;;;;;;3724742;37;21499;-64
2021/04/20 08:44:30;;;;;;;;;26.00;25.50;;;;;;;;3724976;37;21454;-63
2021/04/20 08:47:02;;;;;;;;;29.25;26.75;;;;;;;;3724954;38;21469;-63
2021/04/20 08:49:43;;;;;;;;;26.25;25.75;;;;;;;;3724926;37;21436;-63
2021/04/20 08:52:19;;;;;;;;;24.25;24.00;;;;;;;;3724976;37;21432;-64
2021/04/20 08:55:00;;;;;;;;;23.50;22.50;;;;;;;;3725042;37;21441;-63
2021/04/20 08:57:51;;;;;;;;;23.75;22.75;;;;;;;;3724938;38;21452;-63
2021/04/20 09:00:28;;;;;;;;;27.25;24.25;;;;;;;;3725114;37;21425;-62
2021/04/20 09:03:17;;;;;;;;;26.50;23.50;;;;;;;;3724997;38;21418;-62
2021/04/20 09:05:49;;;;;;;;;20.75;17.75;;;;;;;;3725275;38;21459;-63
2021/04/20 09:08:28;;;;;;;;;25.75;24.00;;;;;;;;3725126;38;21363;-62
2021/04/20 09:11:02;;;;;;;;;22.25;19.75;;;;;;;;3725151;37;21437;-62
2021/04/20 09:13:30;;;;;;;;;18.75;18.25;;;;;;;;3725112;38;21347;-62
2021/04/20 09:16:00;;;;;;;;;17.00;15.75;;;;;;;;3725124;37;21418;-61
2021/04/20 09:18:32;;;;;;;;;16.50;16.50;;;;;;;;3725028;38;21406;-64
2021/04/20 09:21:00;;;;;;;;;16.25;15.50;;;;;;;;3725146;38;21420;-64
2021/04/20 09:23:46;;;;;;;;;17.50;16.75;;;;;;;;3725156;37;21379;-63
2021/04/20 09:26:30;;;;;;;;;15.25;15.25;;;;;;;;3725109;37;21321;-62
2021/04/20 09:29:17;;;;;;;;;13.25;12.75;;;;;;;;3724993;37;21438;-64
2021/04/20 09:31:54;;;;;;;;;15.50;14.00;;;;;;;;3724992;38;21408;-63
2021/04/20 09:34:22;;;;;;;;;11.25;11.25;;;;;;;;3724934;37;21393;-61
2021/04/20 09:36:50;;;;;;;;;13.75;13.75;;;;;;;;3724574;38;21305;-62
2021/04/20 09:39:17;;;;;;;;;12.00;11.75;;;;;;;;3725247;38;21416;-63
2021/04/20 09:41:44;;;;;;;;;14.25;14.25;;;;;;;;3724798;37;21329;-64
2021/04/20 09:44:31;;;;;;;;;15.50;15.25;;;;;;;;3725901;38;21395;-62
2021/04/20 09:47:18;;;;;;;;;12.00;12.00;;;;;;;;3725477;37;21408;-63
2021/04/20 09:50:02;;;;;;;;;13.50;13.50;;;;;;;;3724727;37;21368;-65
2021/04/20 09:53:06;;;;;;;;;12.00;11.25;;;;;;;;3724752;37;21365;-64
2021/04/20 09:55:33;;;;;;;;;22.25;20.75;;;;;;;;3725014;38;21380;-63
2021/04/20 09:58:00;;;;;;;;;14.00;13.75;;;;;;;;3724902;37;21364;-63
2021/04/20 10:00:26;;;;;;;;;14.75;14.75;;;;;;;;3724822;38;21367;-62
2021/04/20 10:02:54;;;;;;;;;16.50;16.50;;;;;;;;3725009;37;21352;-63
2021/04/20 10:05:32;;;;;;;;;15.00;15.00;;;;;;;;3725035;38;21363;-63
2021/04/20 10:08:08;;;;;;;;;17.50;17.50;;;;;;;;3724972;38;21335;-63
2021/04/20 10:10:44;;;;;;;;;16.00;16.00;;;;;;;;3725074;37;21332;-66
2021/04/20 10:13:42;;;;;;;;;15.00;13.00;;;;;;;;3724905;38;21331;-64
2021/04/20 10:16:16;;;;;;;;;14.50;13.75;;;;;;;;3724982;37;21351;-64
2021/04/20 10:19:02;;;;;;;;;11.25;11.25;;;;;;;;3724712;38;21281;-64
2021/04/20 10:21:48;;;;;;;;;15.00;15.00;;;;;;;;3724810;38;21254;-63
2021/04/20 10:24:19;;;;;;;;;14.00;14.00;;;;;;;;3724831;38;21286;-63
2021/04/20 10:26:58;;;;;;;;;16.00;15.50;;;;;;;;3724846;38;21372;-62
2021/04/20 10:29:53;;;;;;;;;14.25;13.75;;;;;;;;3725091;37;21313;-62
2021/04/20 10:32:50;;;;;;;;;14.50;14.50;;;;;;;;3725059;38;21331;-63
2021/04/20 10:35:17;;;;;;;;;15.00;15.00;;;;;;;;3725436;38;21327;-62
2021/04/20 10:37:44;;;;;;;;;14.75;14.75;;;;;;;;3725476;37;21290;-62
2021/04/20 10:40:14;;;;;;;;;18.50;18.00;;;;;;;;3725208;38;21292;-63
2021/04/20 10:42:44;;;;;;;;;16.25;16.25;;;;;;;;3724966;37;21286;-63
2021/04/20 10:45:13;;;;;;;;;15.50;15.50;;;;;;;;3725403;38;21306;-62
2021/04/20 10:47:40;;;;;;;;;14.25;14.25;;;;;;;;3725017;37;21281;-63
2021/04/20 10:50:06;;;;;;;;;13.50;13.50;;;;;;;;3724858;38;21302;-64
2021/04/20 10:52:33;;;;;;;;;14.25;13.75;;;;;;;;3725003;37;21216;-63
2021/04/20 10:55:18;;;;;;;;;13.25;13.25;;;;;;;;3724990;37;21272;-63
2021/04/20 10:57:47;;;;;;;;;16.00;14.75;;;;;;;;3725002;37;21281;-63
2021/04/20 11:00:15;;;;;;;;;14.25;14.25;;;;;;;;3724776;38;21257;-64
2021/04/20 11:02:43;;;;;;;;;16.00;14.00;;;;;;;;3725308;38;21336;-62
2021/04/20 11:05:09;;;;;;;;;13.50;13.50;;;;;;;;3724978;38;21240;-63
2021/04/20 11:07:45;;;;;;;;;13.00;13.00;;;;;;;;3724777;38;21266;-63
2021/04/20 11:10:12;;;;;;;;;15.50;15.50;;;;;;;;3724917;37;21222;-64
2021/04/20 11:12:45;;;;;;;;;19.25;19.25;;;;;;;;3724478;37;21270;-64
2021/04/20 11:15:20;;;;;;;;;16.25;15.00;;;;;;;;3724981;37;21283;-63
2021/04/20 11:18:08;;;;;;;;;17.50;16.50;;;;;;;;3724912;38;21243;-63
2021/04/20 11:20:45;;;;;;;;;16.00;14.00;;;;;;;;3725061;37;21253;-65
2021/04/20 11:23:21;;;;;;;;;8.00;7.75;;;;;;;;3725046;37;21243;-63
2021/04/20 11:25:59;;;;;;;;;7.75;7.75;;;;;;;;3724737;37;21110;-62
2021/04/20 11:28:30;;;;;;;;;10.00;10.00;;;;;;;;3724961;38;21080;-64
2021/04/20 11:31:00;;;;;;;;;10.25;10.25;;;;;;;;3725083;38;21236;-62
2021/04/20 11:33:46;;;;;;;;;7.00;7.00;;;;;;;;3724967;38;21214;-63
2021/04/20 11:36:16;;;;;;;;;7.00;6.75;;;;;;;;3724747;38;21161;-64
2021/04/20 11:38:44;;;;;;;;;7.50;7.50;;;;;;;;3725065;38;20659;-63
2021/04/20 11:41:11;;;;;;;;;8.75;8.75;;;;;;;;3725265;38;21132;-64
2021/04/20 11:43:38;;;;;;;;;8.25;8.25;;;;;;;;3725252;37;21150;-64
2021/04/20 11:46:06;;;;;;;;;10.00;9.00;;;;;;;;3725411;37;21071;-65
2021/04/20 11:48:36;;;;;;;;;9.75;9.00;;;;;;;;3725018;37;21119;-62
2021/04/20 11:51:03;;;;;;;;;5.00;5.00;;;;;;;;3725129;38;21149;-64
2021/04/20 11:53:36;;;;;;;;;5.00;5.00;;;;;;;;3725164;38;21108;-61
2021/04/20 11:56:05;;;;;;;;;4.50;4.50;;;;;;;;3724995;37;21095;-65
2021/04/20 11:58:41;;;;;;;;;5.00;5.00;;;;;;;;3725022;37;21108;-64
2021/04/20 12:01:10;;;;;;;;;6.00;4.25;;;;;;;;3725107;37;21107;-62
2021/04/20 12:03:53;;;;;;;;;6.00;5.25;;;;;;;;3725137;38;21069;-64
2021/04/20 12:06:19;;;;;;;;;3.75;3.75;;;;;;;;3725489;37;21068;-62
2021/04/20 12:08:54;;;;;;;;;6.75;6.75;;;;;;;;3725048;38;21078;-63
2021/04/20 12:11:24;;;;;;;;;4.50;4.50;;;;;;;;3725001;37;21093;-63
2021/04/20 12:13:51;;;;;;;;;4.00;3.75;;;;;;;;3725069;37;21059;-63
2021/04/20 12:16:24;;;;;;;;;4.00;4.00;;;;;;;;3724639;38;21070;-65
2021/04/20 12:18:52;;;;;;;;;5.00;5.00;;;;;;;;3725252;37;21066;-63
2021/04/20 12:21:25;;;;;;;;;6.75;6.00;;;;;;;;3726834;38;21005;-63
2021/04/20 12:23:53;;;;;;;;;5.25;5.25;;;;;;;;3725494;38;21000;-63
2021/04/20 12:26:19;;;;;;;;;7.25;7.25;;;;;;;;3724944;37;21051;-63
2021/04/20 12:28:50;;;;;;;;;4.50;4.50;;;;;;;;3725035;38;21114;-63
2021/04/20 12:31:17;;;;;;;;;6.50;6.50;;;;;;;;3725401;37;21038;-64
2021/04/20 12:33:46;;;;;;;;;10.25;10.00;;;;;;;;3724687;38;21110;-63
2021/04/20 12:36:23;;;;;;;;;5.50;5.00;;;;;;;;3724950;37;21135;-64
2021/04/20 12:38:49;;;;;;;;;6.50;6.50;;;;;;;;3725273;38;21014;-64
2021/04/20 12:41:15;;;;;;;;;7.50;7.50;;;;;;;;3725172;37;21041;-64
2021/04/20 12:43:41;;;;;;;;;6.00;6.00;;;;;;;;3725232;37;18053;-64
2021/04/20 12:46:10;;;;;;;;;9.50;9.00;;;;;;;;3724926;37;18091;-62
2021/04/20 12:48:39;;;;;;;;;8.75;8.00;;;;;;;;3725411;37;20962;-63
2021/04/20 12:51:13;;;;;;;;;10.00;10.00;;;;;;;;3725179;38;20975;-64
2021/04/20 12:53:39;;;;;;;;;11.00;11.00;;;;;;;;3725334;37;21093;-65
2021/04/20 12:56:07;;;;;;;;;12.00;11.00;;;;;;;;3725027;38;21067;-68
2021/04/20 12:58:39;;;;;;;;;9.50;9.50;;;;;;;;3725028;37;21064;-64
2021/04/20 13:01:06;;;;;;;;;11.50;10.25;;;;;;;;3725026;37;21055;-64
2021/04/20 13:03:33;;;;;;;;;9.50;9.00;;;;;;;;3725915;37;20742;-65
2021/04/20 13:06:07;;;;;;;;;9.50;9.25;;;;;;;;3725239;38;21011;-64
2021/04/20 13:08:33;;;;;;;;;12.50;12.50;;;;;;;;3725023;38;20966;-64
2021/04/20 13:10:59;;;;;;;;;12.00;12.00;;;;;;;;3725121;37;21052;-64
2021/04/20 13:13:27;;;;;;;;;4.00;4.00;;;;;;;;3725232;38;21159;-64
2021/04/20 13:16:01;;;;;;;;;11.75;10.75;;;;;;;;3724687;37;20942;-64
2021/04/20 13:18:29;;;;;;;;;11.00;11.00;;;;;;;;3725016;38;21081;-63
2021/04/20 13:20:56;;;;;;;;;13.00;13.00;;;;;;;;3725052;37;21067;-65
2021/04/20 13:23:48;;;;;;;;;11.00;11.00;;;;;;;;3725097;38;21023;-66
2021/04/20 13:26:24;;;;;;;;;10.25;10.25;;;;;;;;3724884;37;21047;-66
2021/04/20 13:28:51;;;;;;;;;12.75;12.00;;;;;;;;3724856;37;20994;-63
2021/04/20 13:31:19;;;;;;;;;12.00;11.00;;;;;;;;3725104;37;20684;-63
2021/04/20 13:33:46;;;;;;;;;12.00;11.00;;;;;;;;3724579;38;20998;-62
2021/04/20 13:36:15;;;;;;;;;8.50;7.50;;;;;;;;3726741;37;21022;-62
2021/04/20 13:38:48;;;;;;;;;7.25;7.25;;;;;;;;3725670;37;20904;-62
2021/04/20 13:41:14;;;;;;;;;7.75;7.75;;;;;;;;3725035;38;20926;-62
2021/04/20 13:43:45;;;;;;;;;7.00;7.00;;;;;;;;3725043;38;20917;-65
2021/04/20 13:46:10;;;;;;;;;7.00;7.00;;;;;;;;3725161;38;17989;-63
2021/04/20 13:48:36;;;;;;;;;7.00;7.00;;;;;;;;3724981;38;20944;-65
2021/04/20 13:51:02;;;;;;;;;6.50;6.50;;;;;;;;3725219;38;17978;-62
2021/04/20 13:53:30;;;;;;;;;54.50;45.50;;;;;;;;3725311;38;17976;-64
2021/04/20 13:56:10;;;;;;;;;12.00;12.00;;;;;;;;3725149;38;18000;-65
2021/04/20 13:58:40;;;;;;;;;10.50;9.00;;;;;;;;3724832;37;21034;-67
2021/04/20 14:01:13;;;;;;;;;10.75;9.75;;;;;;;;3725083;37;20923;-65
2021/04/20 14:03:48;;;;;;;;;12.75;12.75;;;;;;;;3725250;37;21081;-65
2021/04/20 14:06:14;;;;;;;;;11.50;10.50;;;;;;;;3725032;37;21045;-63
2021/04/20 14:08:42;;;;;;;;;12.75;11.75;;;;;;;;3724958;38;20917;-64
2021/04/20 14:11:08;;;;;;;;;15.25;14.75;;;;;;;;3724934;38;21006;-65
2021/04/20 14:13:35;;;;;;;;;16.00;15.75;;;;;;;;3724783;38;20986;-64
2021/04/20 14:16:21;;;;;;;;;14.75;14.75;;;;;;;;3724993;37;17934;-64
2021/04/20 14:18:53;;;;;;;;;13.00;13.00;;;;;;;;3725361;37;21005;-63
2021/04/20 14:21:20;;;;;;;;;16.00;15.25;;;;;;;;3725013;37;21001;-64
2021/04/20 14:23:48;;;;;;;;;11.75;10.25;;;;;;;;3725045;38;20983;-65
2021/04/20 14:26:15;;;;;;;;;18.25;18.25;;;;;;;;3724875;37;20910;-65
2021/04/20 14:28:43;;;;;;;;;15.25;15.00;;;;;;;;3724900;37;20965;-65
2021/04/20 14:31:09;;;;;;;;;14.50;14.50;;;;;;;;3724513;37;20984;-64
2021/04/20 14:33:44;;;;;;;;;11.50;11.50;;;;;;;;3725178;37;21223;-65
2021/04/20 14:36:12;;;;;;;;;13.00;13.00;;;;;;;;3725215;37;17923;-65
2021/04/20 14:38:40;;;;;;;;;12.00;12.00;;;;;;;;3725160;38;20907;-63
2021/04/20 14:41:12;;;;;;;;;12.25;12.25;;;;;;;;3724876;38;20966;-65
2021/04/20 14:43:41;;;;;;;;;13.50;13.50;;;;;;;;3725156;38;20935;-64
2021/04/20 14:46:09;;;;;;;;;12.25;12.25;;;;;;;;3724880;38;20978;-62